sensor_id;sensor_type;location;lat;lon;timestamp;pressure;altitude;pressure_sealevel;temperature;humidity
15308;BME280;7755;52.208;6.964;2022-08-25T00:01:09;101337.34;;;23.59;54.48
15308;BME280;7755;52.208;6.964;2022-08-25T00:05:13;101335.50;;;23.55;54.77
15308;BME280;7755;52.208;6.964;2022-08-25T00:09:21;101339.19;;;23.50;54.38
15308;BME280;7755;52.208;6.964;2022-08-25T00:13:23;101337.06;;;23.47;54.98
15308;BME280;7755;52.208;6.964;2022-08-25T00:17:25;101333.78;;;23.45;54.72
15308;BME280;7755;52.208;6.964;2022-08-25T00:21:29;101338.63;;;23.39;55.06
15308;BME280;7755;52.208;6.964;2022-08-25T00:25:32;101339.22;;;23.36;55.11
15308;BME280;7755;52.208;6.964;2022-08-25T00:29:34;101347.69;;;23.31;55.02
15308;BME280;7755;52.208;6.964;2022-08-25T00:33:37;101340.28;;;23.27;55.09
15308;BME280;7755;52.208;6.964;2022-08-25T00:37:40;101342.56;;;23.25;55.19
15308;BME280;7755;52.208;6.964;2022-08-25T00:41:42;101350.16;;;23.19;55.19
15308;BME280;7755;52.208;6.964;2022-08-25T00:45:44;101349.13;;;23.15;55.54
15308;BME280;7755;52.208;6.964;2022-08-25T00:49:49;101343.72;;;23.10;55.89
15308;BME280;7755;52.208;6.964;2022-08-25T00:53:53;101346.03;;;23.03;55.72
15308;BME280;7755;52.208;6.964;2022-08-25T00:57:59;101353.34;;;22.99;56.15
15308;BME280;7755;52.208;6.964;2022-08-25T01:02:05;101362.91;;;22.93;56.74
15308;BME280;7755;52.208;6.964;2022-08-25T01:06:08;101358.59;;;22.86;56.88
15308;BME280;7755;52.208;6.964;2022-08-25T01:10:13;101361.22;;;22.78;57.51
15308;BME280;7755;52.208;6.964;2022-08-25T01:14:17;101357.41;;;22.74;57.86
15308;BME280;7755;52.208;6.964;2022-08-25T01:18:19;101364.19;;;22.68;57.78
15308;BME280;7755;52.208;6.964;2022-08-25T01:22:23;101368.72;;;22.64;58.06
15308;BME280;7755;52.208;6.964;2022-08-25T01:26:29;101365.53;;;22.56;58.32
15308;BME280;7755;52.208;6.964;2022-08-25T01:30:31;101363.66;;;22.52;58.39
15308;BME280;7755;52.208;6.964;2022-08-25T01:34:36;101362.41;;;22.44;58.90
15308;BME280;7755;52.208;6.964;2022-08-25T01:38:41;101367.13;;;22.44;59.09
15308;BME280;7755;52.208;6.964;2022-08-25T01:42:53;101364.75;;;22.37;59.64
15308;BME280;7755;52.208;6.964;2022-08-25T01:46:58;101351.59;;;22.29;60.01
15308;BME280;7755;52.208;6.964;2022-08-25T01:50:59;101354.97;;;22.26;60.39
15308;BME280;7755;52.208;6.964;2022-08-25T01:55:04;101346.72;;;22.21;60.62
15308;BME280;7755;52.208;6.964;2022-08-25T01:59:06;101352.38;;;22.16;60.47
15308;BME280;7755;52.208;6.964;2022-08-25T02:03:08;101354.41;;;22.10;60.72
15308;BME280;7755;52.208;6.964;2022-08-25T02:07:10;101345.00;;;22.06;61.07
15308;BME280;7755;52.208;6.964;2022-08-25T02:11:13;101356.97;;;22.01;61.33
15308;BME280;7755;52.208;6.964;2022-08-25T02:15:15;101348.78;;;21.96;61.50
15308;BME280;7755;52.208;6.964;2022-08-25T02:19:18;101348.25;;;21.94;61.71
15308;BME280;7755;52.208;6.964;2022-08-25T02:23:21;101351.09;;;21.89;61.54
15308;BME280;7755;52.208;6.964;2022-08-25T02:27:24;101355.59;;;21.85;62.04
15308;BME280;7755;52.208;6.964;2022-08-25T02:31:26;101350.66;;;21.82;61.97
15308;BME280;7755;52.208;6.964;2022-08-25T02:35:28;101355.16;;;21.78;62.20
15308;BME280;7755;52.208;6.964;2022-08-25T02:39:30;101351.63;;;21.72;62.29
15308;BME280;7755;52.208;6.964;2022-08-25T02:43:33;101352.56;;;21.68;62.88
15308;BME280;7755;52.208;6.964;2022-08-25T02:47:35;101363.06;;;21.66;62.96
15308;BME280;7755;52.208;6.964;2022-08-25T02:51:37;101364.25;;;21.60;63.45
15308;BME280;7755;52.208;6.964;2022-08-25T02:55:39;101369.59;;;21.56;64.02
15308;BME280;7755;52.208;6.964;2022-08-25T02:59:42;101367.69;;;21.51;63.73
15308;BME280;7755;52.208;6.964;2022-08-25T03:03:47;101358.38;;;21.47;64.18
15308;BME280;7755;52.208;6.964;2022-08-25T03:07:51;101355.97;;;21.41;64.79
15308;BME280;7755;52.208;6.964;2022-08-25T03:11:53;101354.09;;;21.36;64.75
15308;BME280;7755;52.208;6.964;2022-08-25T03:15:57;101350.25;;;21.32;65.24
15308;BME280;7755;52.208;6.964;2022-08-25T03:19:58;101348.38;;;21.27;65.24
15308;BME280;7755;52.208;6.964;2022-08-25T03:24:00;101348.94;;;21.24;65.52
15308;BME280;7755;52.208;6.964;2022-08-25T03:28:03;101337.94;;;21.19;66.07
15308;BME280;7755;52.208;6.964;2022-08-25T03:32:06;101333.31;;;21.15;65.84
15308;BME280;7755;52.208;6.964;2022-08-25T03:36:08;101326.19;;;21.09;66.18
15308;BME280;7755;52.208;6.964;2022-08-25T03:40:14;101327.09;;;21.04;66.45
15308;BME280;7755;52.208;6.964;2022-08-25T03:44:17;101316.38;;;20.97;66.49
15308;BME280;7755;52.208;6.964;2022-08-25T03:48:21;101309.81;;;20.93;66.96
15308;BME280;7755;52.208;6.964;2022-08-25T03:52:23;101303.22;;;20.89;66.66
15308;BME280;7755;52.208;6.964;2022-08-25T03:56:25;101307.16;;;20.83;67.36
15308;BME280;7755;52.208;6.964;2022-08-25T04:00:27;101312.16;;;20.81;67.68
15308;BME280;7755;52.208;6.964;2022-08-25T04:04:31;101317.16;;;20.79;68.15
15308;BME280;7755;52.208;6.964;2022-08-25T04:08:33;101314.97;;;20.76;68.26
15308;BME280;7755;52.208;6.964;2022-08-25T04:12:35;101313.34;;;20.75;67.96
15308;BME280;7755;52.208;6.964;2022-08-25T04:16:37;101306.44;;;20.72;68.53
15308;BME280;7755;52.208;6.964;2022-08-25T04:20:41;101304.28;;;20.69;68.89
15308;BME280;7755;52.208;6.964;2022-08-25T04:24:43;101305.69;;;20.67;68.82
15308;BME280;7755;52.208;6.964;2022-08-25T04:28:45;101299.63;;;20.65;69.14
15308;BME280;7755;52.208;6.964;2022-08-25T04:32:47;101298.28;;;20.62;69.18
15308;BME280;7755;52.208;6.964;2022-08-25T04:36:50;101299.97;;;20.58;69.47
15308;BME280;7755;52.208;6.964;2022-08-25T04:40:55;101294.44;;;20.58;70.45
15308;BME280;7755;52.208;6.964;2022-08-25T04:44:57;101297.50;;;20.57;70.75
15308;BME280;7755;52.208;6.964;2022-08-25T04:49:00;101295.34;;;20.54;71.02
15308;BME280;7755;52.208;6.964;2022-08-25T04:53:04;101290.88;;;20.58;71.86
15308;BME280;7755;52.208;6.964;2022-08-25T04:57:06;101292.50;;;20.59;71.64
15308;BME280;7755;52.208;6.964;2022-08-25T05:01:10;101290.59;;;20.59;71.81
15308;BME280;7755;52.208;6.964;2022-08-25T05:05:11;101293.34;;;20.59;72.19
15308;BME280;7755;52.208;6.964;2022-08-25T05:09:15;101301.34;;;20.61;73.62
15308;BME280;7755;52.208;6.964;2022-08-25T05:13:17;101308.44;;;20.91;72.46
15308;BME280;7755;52.208;6.964;2022-08-25T05:17:19;101309.06;;;20.88;71.72
15308;BME280;7755;52.208;6.964;2022-08-25T05:21:24;101308.81;;;20.84;71.99
15308;BME280;7755;52.208;6.964;2022-08-25T05:25:28;101303.63;;;20.78;72.27
15308;BME280;7755;52.208;6.964;2022-08-25T05:29:29;101298.41;;;20.76;72.67
15308;BME280;7755;52.208;6.964;2022-08-25T05:33:31;101308.03;;;20.79;73.22
15308;BME280;7755;52.208;6.964;2022-08-25T05:37:33;101296.97;;;20.79;73.63
15308;BME280;7755;52.208;6.964;2022-08-25T05:41:38;101296.47;;;20.77;73.73
15308;BME280;7755;52.208;6.964;2022-08-25T05:45:40;101298.88;;;20.83;73.88
15308;BME280;7755;52.208;6.964;2022-08-25T05:49:42;101290.53;;;20.88;73.91
15308;BME280;7755;52.208;6.964;2022-08-25T05:53:46;101283.25;;;20.92;74.39
15308;BME280;7755;52.208;6.964;2022-08-25T05:57:49;101279.31;;;20.98;74.00
15308;BME280;7755;52.208;6.964;2022-08-25T06:01:51;101291.66;;;21.06;74.11
15308;BME280;7755;52.208;6.964;2022-08-25T06:06:23;101292.41;;;21.12;74.40
15308;BME280;7755;52.208;6.964;2022-08-25T06:10:25;101286.75;;;21.22;73.76
15308;BME280;7755;52.208;6.964;2022-08-25T06:14:29;101290.56;;;21.26;74.11
15308;BME280;7755;52.208;6.964;2022-08-25T06:18:30;101292.41;;;21.36;73.80
15308;BME280;7755;52.208;6.964;2022-08-25T06:22:32;101293.88;;;21.47;73.65
15308;BME280;7755;52.208;6.964;2022-08-25T06:26:34;101291.81;;;21.58;73.41
15308;BME280;7755;52.208;6.964;2022-08-25T06:30:38;101295.75;;;21.70;73.19
15308;BME280;7755;52.208;6.964;2022-08-25T06:34:39;101289.16;;;21.85;73.13
15308;BME280;7755;52.208;6.964;2022-08-25T06:38:42;101287.97;;;22.05;73.56
15308;BME280;7755;52.208;6.964;2022-08-25T06:42:46;101300.06;;;22.28;72.47
15308;BME280;7755;52.208;6.964;2022-08-25T06:46:50;101290.16;;;22.54;72.32
15308;BME280;7755;52.208;6.964;2022-08-25T06:50:51;101293.75;;;22.82;71.99
15308;BME280;7755;52.208;6.964;2022-08-25T06:54:53;101296.41;;;23.15;69.82
15308;BME280;7755;52.208;6.964;2022-08-25T06:58:55;101295.94;;;23.49;69.41
15308;BME280;7755;52.208;6.964;2022-08-25T07:02:58;101302.00;;;23.87;68.49
15308;BME280;7755;52.208;6.964;2022-08-25T07:07:01;101288.69;;;24.29;67.70
15308;BME280;7755;52.208;6.964;2022-08-25T07:11:04;101295.31;;;24.73;66.57
15308;BME280;7755;52.208;6.964;2022-08-25T07:15:06;101288.25;;;25.15;65.17
15308;BME280;7755;52.208;6.964;2022-08-25T07:19:10;101295.47;;;25.59;61.67
15308;BME280;7755;52.208;6.964;2022-08-25T07:23:11;101292.19;;;26.09;59.71
15308;BME280;7755;52.208;6.964;2022-08-25T07:27:13;101301.25;;;26.53;57.52
15308;BME280;7755;52.208;6.964;2022-08-25T07:31:15;101297.47;;;26.96;55.88
15308;BME280;7755;52.208;6.964;2022-08-25T07:35:18;101297.59;;;27.29;53.83
15308;BME280;7755;52.208;6.964;2022-08-25T07:39:24;101292.53;;;27.73;53.36
15308;BME280;7755;52.208;6.964;2022-08-25T07:43:26;101295.94;;;28.12;51.96
15308;BME280;7755;52.208;6.964;2022-08-25T07:47:28;101297.31;;;28.39;51.18
15308;BME280;7755;52.208;6.964;2022-08-25T07:51:31;101301.88;;;28.68;50.06
15308;BME280;7755;52.208;6.964;2022-08-25T07:55:33;101295.38;;;29.00;48.91
15308;BME280;7755;52.208;6.964;2022-08-25T07:59:39;101290.00;;;29.20;47.68
15308;BME280;7755;52.208;6.964;2022-08-25T08:03:41;101292.06;;;29.35;47.67
15308;BME280;7755;52.208;6.964;2022-08-25T08:07:44;101281.00;;;29.67;47.03
15308;BME280;7755;52.208;6.964;2022-08-25T08:11:46;101277.09;;;29.99;47.07
15308;BME280;7755;52.208;6.964;2022-08-25T08:15:47;101276.38;;;30.30;45.37
15308;BME280;7755;52.208;6.964;2022-08-25T08:19:49;101263.06;;;30.59;44.97
15308;BME280;7755;52.208;6.964;2022-08-25T08:23:53;101261.78;;;30.88;43.80
15308;BME280;7755;52.208;6.964;2022-08-25T08:27:55;101263.28;;;31.01;43.37
15308;BME280;7755;52.208;6.964;2022-08-25T08:31:57;101263.13;;;31.10;44.06
15308;BME280;7755;52.208;6.964;2022-08-25T08:36:01;101254.66;;;31.25;43.74
15308;BME280;7755;52.208;6.964;2022-08-25T08:40:07;101263.09;;;31.45;43.20
15308;BME280;7755;52.208;6.964;2022-08-25T08:44:16;101255.25;;;31.73;43.13
15308;BME280;7755;52.208;6.964;2022-08-25T08:48:39;101250.13;;;31.98;41.98
15308;BME280;7755;52.208;6.964;2022-08-25T08:52:45;101247.06;;;32.30;41.91
15308;BME280;7755;52.208;6.964;2022-08-25T08:56:54;101243.13;;;32.57;41.57
15308;BME280;7755;52.208;6.964;2022-08-25T09:01:00;101243.22;;;32.61;41.49
15308;BME280;7755;52.208;6.964;2022-08-25T09:05:07;101251.56;;;32.80;40.59
15308;BME280;7755;52.208;6.964;2022-08-25T09:09:11;101242.16;;;32.96;39.81
15308;BME280;7755;52.208;6.964;2022-08-25T09:13:21;101242.50;;;33.21;39.01
15308;BME280;7755;52.208;6.964;2022-08-25T09:17:39;101233.56;;;33.15;38.23
15308;BME280;7755;52.208;6.964;2022-08-25T09:21:47;101226.41;;;33.21;38.22
15308;BME280;7755;52.208;6.964;2022-08-25T09:25:59;101220.66;;;33.40;37.73
15308;BME280;7755;52.208;6.964;2022-08-25T09:30:08;101226.84;;;33.53;37.95
15308;BME280;7755;52.208;6.964;2022-08-25T09:34:12;101212.84;;;33.64;37.55
15308;BME280;7755;52.208;6.964;2022-08-25T09:38:14;101217.41;;;33.76;37.17
15308;BME280;7755;52.208;6.964;2022-08-25T09:42:17;101206.41;;;34.01;37.31
15308;BME280;7755;52.208;6.964;2022-08-25T09:46:25;101201.19;;;34.03;36.59
15308;BME280;7755;52.208;6.964;2022-08-25T09:50:30;101184.03;;;34.26;35.45
15308;BME280;7755;52.208;6.964;2022-08-25T09:54:36;101184.13;;;34.40;34.91
15308;BME280;7755;52.208;6.964;2022-08-25T09:58:38;101183.06;;;34.52;35.53
15308;BME280;7755;52.208;6.964;2022-08-25T10:02:43;101178.25;;;34.59;34.60
15308;BME280;7755;52.208;6.964;2022-08-25T10:06:46;101165.47;;;34.76;35.03
15308;BME280;7755;52.208;6.964;2022-08-25T10:10:53;101166.31;;;34.87;33.70
15308;BME280;7755;52.208;6.964;2022-08-25T10:14:56;101144.94;;;34.90;34.69
15308;BME280;7755;52.208;6.964;2022-08-25T10:19:05;101144.59;;;35.02;34.36
15308;BME280;7755;52.208;6.964;2022-08-25T10:23:09;101147.41;;;34.95;31.92
15308;BME280;7755;52.208;6.964;2022-08-25T10:27:17;101140.19;;;35.08;31.67
15308;BME280;7755;52.208;6.964;2022-08-25T10:31:25;101138.25;;;35.23;30.79
15308;BME280;7755;52.208;6.964;2022-08-25T10:35:42;101122.09;;;35.27;31.18
15308;BME280;7755;52.208;6.964;2022-08-25T10:39:53;101124.50;;;35.21;30.13
15308;BME280;7755;52.208;6.964;2022-08-25T10:44:05;101129.72;;;35.12;29.77
15308;BME280;7755;52.208;6.964;2022-08-25T10:48:55;101130.59;;;35.38;30.62
15308;BME280;7755;52.208;6.964;2022-08-25T10:53:12;101118.88;;;35.32;31.38
15308;BME280;7755;52.208;6.964;2022-08-25T10:57:22;101108.78;;;35.35;30.86
15308;BME280;7755;52.208;6.964;2022-08-25T11:01:38;101112.06;;;35.54;30.51
15308;BME280;7755;52.208;6.964;2022-08-25T11:05:46;101108.84;;;35.52;30.07
15308;BME280;7755;52.208;6.964;2022-08-25T11:09:55;101101.16;;;35.46;28.90
15308;BME280;7755;52.208;6.964;2022-08-25T11:13:59;101107.25;;;35.59;28.77
15308;BME280;7755;52.208;6.964;2022-08-25T11:18:06;101097.94;;;35.65;28.55
15308;BME280;7755;52.208;6.964;2022-08-25T11:22:14;101091.09;;;35.84;29.11
15308;BME280;7755;52.208;6.964;2022-08-25T11:26:22;101094.75;;;35.92;28.50
15308;BME280;7755;52.208;6.964;2022-08-25T11:30:29;101092.28;;;36.22;27.84
15308;BME280;7755;52.208;6.964;2022-08-25T11:34:32;101099.56;;;36.41;27.81
15308;BME280;7755;52.208;6.964;2022-08-25T11:38:45;101089.44;;;36.40;28.42
15308;BME280;7755;52.208;6.964;2022-08-25T11:42:59;101085.78;;;36.29;28.92
15308;BME280;7755;52.208;6.964;2022-08-25T11:47:19;101084.19;;;36.46;28.87
15308;BME280;7755;52.208;6.964;2022-08-25T11:51:30;101077.69;;;36.49;27.91
15308;BME280;7755;52.208;6.964;2022-08-25T11:55:46;101076.81;;;36.66;27.81
15308;BME280;7755;52.208;6.964;2022-08-25T12:00:06;101070.34;;;36.66;27.69
15308;BME280;7755;52.208;6.964;2022-08-25T12:04:12;101076.88;;;36.52;27.76
15308;BME280;7755;52.208;6.964;2022-08-25T12:08:49;101071.19;;;36.55;27.60
15308;BME280;7755;52.208;6.964;2022-08-25T12:17:23;101063.38;;;36.84;27.28
15308;BME280;7755;52.208;6.964;2022-08-25T12:21:31;101056.50;;;36.82;26.52
15308;BME280;7755;52.208;6.964;2022-08-25T12:25:48;101052.47;;;36.79;27.19
15308;BME280;7755;52.208;6.964;2022-08-25T12:29:57;101054.19;;;36.59;26.75
15308;BME280;7755;52.208;6.964;2022-08-25T12:34:13;101057.84;;;36.49;26.61
15308;BME280;7755;52.208;6.964;2022-08-25T12:38:27;101043.56;;;36.81;26.66
15308;BME280;7755;52.208;6.964;2022-08-25T12:42:34;101042.31;;;36.89;25.91
15308;BME280;7755;52.208;6.964;2022-08-25T12:46:37;101037.03;;;36.95;26.85
15308;BME280;7755;52.208;6.964;2022-08-25T12:50:43;101031.25;;;37.12;27.37
15308;BME280;7755;52.208;6.964;2022-08-25T12:54:50;101035.34;;;37.04;26.54
15308;BME280;7755;52.208;6.964;2022-08-25T12:59:10;101024.84;;;37.01;25.41
15308;BME280;7755;52.208;6.964;2022-08-25T13:03:31;101020.69;;;37.20;25.83
15308;BME280;7755;52.208;6.964;2022-08-25T13:07:56;101016.03;;;37.48;26.63
15308;BME280;7755;52.208;6.964;2022-08-25T13:12:04;101005.50;;;37.44;26.00
15308;BME280;7755;52.208;6.964;2022-08-25T13:16:16;101000.31;;;37.39;25.82
15308;BME280;7755;52.208;6.964;2022-08-25T13:20:24;100994.25;;;37.30;25.67
15308;BME280;7755;52.208;6.964;2022-08-25T13:24:30;100999.78;;;36.93;25.54
15308;BME280;7755;52.208;6.964;2022-08-25T13:28:36;100993.66;;;36.98;26.01
15308;BME280;7755;52.208;6.964;2022-08-25T13:32:39;100989.53;;;37.09;25.87
15308;BME280;7755;52.208;6.964;2022-08-25T13:36:42;100986.28;;;37.14;25.39
15308;BME280;7755;52.208;6.964;2022-08-25T13:41:04;100978.19;;;37.09;24.95
15308;BME280;7755;52.208;6.964;2022-08-25T13:45:07;100974.56;;;37.09;24.93
15308;BME280;7755;52.208;6.964;2022-08-25T13:49:24;100982.28;;;37.05;24.91
15308;BME280;7755;52.208;6.964;2022-08-25T13:53:27;100974.66;;;36.95;25.78
15308;BME280;7755;52.208;6.964;2022-08-25T13:57:31;100967.72;;;37.06;25.16
15308;BME280;7755;52.208;6.964;2022-08-25T14:01:42;100972.38;;;36.68;25.30
15308;BME280;7755;52.208;6.964;2022-08-25T14:05:46;100961.91;;;36.54;25.77
15308;BME280;7755;52.208;6.964;2022-08-25T14:09:50;100965.63;;;36.33;26.33
15308;BME280;7755;52.208;6.964;2022-08-25T14:14:00;100959.13;;;36.36;26.93
15308;BME280;7755;52.208;6.964;2022-08-25T14:18:05;100940.13;;;36.41;26.78
15308;BME280;7755;52.208;6.964;2022-08-25T14:22:08;100947.84;;;36.33;27.50
15308;BME280;7755;52.208;6.964;2022-08-25T14:26:12;100949.81;;;36.36;27.46
15308;BME280;7755;52.208;6.964;2022-08-25T14:30:16;100945.44;;;36.17;27.50
15308;BME280;7755;52.208;6.964;2022-08-25T14:34:20;100943.06;;;36.12;27.17
15308;BME280;7755;52.208;6.964;2022-08-25T14:38:23;100941.00;;;36.16;27.57
15308;BME280;7755;52.208;6.964;2022-08-25T14:42:25;100944.25;;;36.18;28.01
15308;BME280;7755;52.208;6.964;2022-08-25T14:46:32;100938.19;;;36.20;28.18
15308;BME280;7755;52.208;6.964;2022-08-25T14:50:35;100935.03;;;35.82;27.43
15308;BME280;7755;52.208;6.964;2022-08-25T14:54:37;100926.19;;;35.66;27.29
15308;BME280;7755;52.208;6.964;2022-08-25T14:58:39;100926.19;;;35.51;27.91
15308;BME280;7755;52.208;6.964;2022-08-25T15:02:45;100925.41;;;35.51;27.28
15308;BME280;7755;52.208;6.964;2022-08-25T15:06:53;100916.88;;;35.40;28.11
15308;BME280;7755;52.208;6.964;2022-08-25T15:10:55;100912.44;;;35.43;28.91
15308;BME280;7755;52.208;6.964;2022-08-25T15:14:57;100920.09;;;35.35;28.32
15308;BME280;7755;52.208;6.964;2022-08-25T15:19:01;100916.06;;;35.29;28.02
15308;BME280;7755;52.208;6.964;2022-08-25T15:23:04;100909.22;;;35.16;29.00
15308;BME280;7755;52.208;6.964;2022-08-25T15:27:06;100903.16;;;35.07;28.88
15308;BME280;7755;52.208;6.964;2022-08-25T15:31:09;100902.34;;;34.99;28.81
15308;BME280;7755;52.208;6.964;2022-08-25T15:35:13;100900.72;;;34.91;28.57
15308;BME280;7755;52.208;6.964;2022-08-25T15:39:15;100898.25;;;34.68;29.03
15308;BME280;7755;52.208;6.964;2022-08-25T15:43:18;100886.56;;;34.62;29.06
15308;BME280;7755;52.208;6.964;2022-08-25T15:47:22;100889.75;;;34.54;29.61
15308;BME280;7755;52.208;6.964;2022-08-25T15:51:26;100890.16;;;34.52;29.60
15308;BME280;7755;52.208;6.964;2022-08-25T15:55:28;100886.91;;;34.43;29.88
15308;BME280;7755;52.208;6.964;2022-08-25T15:59:30;100886.94;;;34.50;30.46
15308;BME280;7755;52.208;6.964;2022-08-25T16:03:32;100884.44;;;34.38;29.66
15308;BME280;7755;52.208;6.964;2022-08-25T16:07:35;100878.78;;;34.31;29.93
15308;BME280;7755;52.208;6.964;2022-08-25T16:11:37;100878.72;;;34.20;30.20
15308;BME280;7755;52.208;6.964;2022-08-25T16:15:39;100869.78;;;34.00;29.57
15308;BME280;7755;52.208;6.964;2022-08-25T16:19:47;100870.13;;;33.88;30.06
15308;BME280;7755;52.208;6.964;2022-08-25T16:23:51;100870.56;;;33.93;30.51
15308;BME280;7755;52.208;6.964;2022-08-25T16:27:53;100855.63;;;33.93;30.42
15308;BME280;7755;52.208;6.964;2022-08-25T16:31:55;100860.44;;;33.89;30.37
15308;BME280;7755;52.208;6.964;2022-08-25T16:36:05;100859.59;;;33.85;30.27
15308;BME280;7755;52.208;6.964;2022-08-25T16:40:10;100860.00;;;33.83;30.62
15308;BME280;7755;52.208;6.964;2022-08-25T16:44:13;100861.59;;;33.77;30.44
15308;BME280;7755;52.208;6.964;2022-08-25T16:48:31;100861.47;;;33.56;30.03
15308;BME280;7755;52.208;6.964;2022-08-25T16:52:34;100858.56;;;33.45;30.45
15308;BME280;7755;52.208;6.964;2022-08-25T16:56:56;100857.25;;;33.32;30.29
15308;BME280;7755;52.208;6.964;2022-08-25T17:01:03;100860.78;;;33.18;31.23
15308;BME280;7755;52.208;6.964;2022-08-25T17:05:07;100855.03;;;33.04;31.19
15308;BME280;7755;52.208;6.964;2022-08-25T17:09:12;100861.78;;;32.92;31.24
15308;BME280;7755;52.208;6.964;2022-08-25T17:13:16;100863.66;;;32.81;31.72
15308;BME280;7755;52.208;6.964;2022-08-25T17:17:19;100861.19;;;32.72;32.15
15308;BME280;7755;52.208;6.964;2022-08-25T17:21:23;100854.63;;;32.61;32.60
15308;BME280;7755;52.208;6.964;2022-08-25T17:25:26;100862.19;;;32.53;32.81
15308;BME280;7755;52.208;6.964;2022-08-25T17:29:29;100857.97;;;32.37;33.15
15308;BME280;7755;52.208;6.964;2022-08-25T17:33:35;100860.59;;;32.22;33.63
15308;BME280;7755;52.208;6.964;2022-08-25T17:37:37;100862.50;;;32.11;34.43
15308;BME280;7755;52.208;6.964;2022-08-25T17:41:40;100860.66;;;31.92;34.62
15308;BME280;7755;52.208;6.964;2022-08-25T17:45:45;100873.63;;;31.74;34.79
15308;BME280;7755;52.208;6.964;2022-08-25T17:49:47;100863.81;;;31.61;35.23
15308;BME280;7755;52.208;6.964;2022-08-25T17:53:50;100873.25;;;31.49;35.37
15308;BME280;7755;52.208;6.964;2022-08-25T17:57:54;100873.88;;;31.35;35.56
15308;BME280;7755;52.208;6.964;2022-08-25T18:02:12;100876.00;;;31.19;36.18
15308;BME280;7755;52.208;6.964;2022-08-25T18:06:14;100873.69;;;31.02;36.29
15308;BME280;7755;52.208;6.964;2022-08-25T18:10:16;100879.84;;;30.84;36.98
15308;BME280;7755;52.208;6.964;2022-08-25T18:14:19;100880.66;;;30.65;36.86
15308;BME280;7755;52.208;6.964;2022-08-25T18:18:22;100877.06;;;30.45;37.81
15308;BME280;7755;52.208;6.964;2022-08-25T18:22:24;100884.41;;;30.31;37.95
15308;BME280;7755;52.208;6.964;2022-08-25T18:26:26;100875.72;;;30.16;38.29
15308;BME280;7755;52.208;6.964;2022-08-25T18:30:28;100882.53;;;30.00;38.76
15308;BME280;7755;52.208;6.964;2022-08-25T18:34:31;100884.59;;;29.83;39.78
15308;BME280;7755;52.208;6.964;2022-08-25T18:38:34;100886.63;;;29.67;40.15
15308;BME280;7755;52.208;6.964;2022-08-25T18:43:05;100885.84;;;29.51;40.87
15308;BME280;7755;52.208;6.964;2022-08-25T18:47:07;100895.78;;;29.32;41.32
15308;BME280;7755;52.208;6.964;2022-08-25T18:51:10;100893.25;;;29.12;41.99
15308;BME280;7755;52.208;6.964;2022-08-25T18:55:13;100892.34;;;28.92;42.67
15308;BME280;7755;52.208;6.964;2022-08-25T18:59:15;100891.88;;;28.74;43.18
15308;BME280;7755;52.208;6.964;2022-08-25T19:03:19;100892.19;;;28.56;43.68
15308;BME280;7755;52.208;6.964;2022-08-25T19:07:25;100898.13;;;28.39;44.81
15308;BME280;7755;52.208;6.964;2022-08-25T19:11:38;100897.56;;;28.21;45.14
15308;BME280;7755;52.208;6.964;2022-08-25T19:16:16;100897.63;;;28.09;45.88
15308;BME280;7755;52.208;6.964;2022-08-25T19:25:32;100899.91;;;27.79;47.25
15308;BME280;7755;52.208;6.964;2022-08-25T19:29:59;100900.13;;;27.62;48.08
15308;BME280;7755;52.208;6.964;2022-08-25T19:34:35;100903.66;;;27.46;48.44
15308;BME280;7755;52.208;6.964;2022-08-25T19:39:03;100899.59;;;27.32;49.13
15308;BME280;7755;52.208;6.964;2022-08-25T19:43:07;100900.63;;;27.15;50.14
15308;BME280;7755;52.208;6.964;2022-08-25T19:47:09;100907.22;;;26.98;51.04
15308;BME280;7755;52.208;6.964;2022-08-25T19:51:11;100913.47;;;26.83;51.70
15308;BME280;7755;52.208;6.964;2022-08-25T19:55:13;100905.06;;;26.71;52.48
15308;BME280;7755;52.208;6.964;2022-08-25T19:59:17;100907.09;;;26.61;53.28
15308;BME280;7755;52.208;6.964;2022-08-25T20:03:20;100906.13;;;26.45;53.57
15308;BME280;7755;52.208;6.964;2022-08-25T20:07:25;100903.88;;;26.38;54.71
15308;BME280;7755;52.208;6.964;2022-08-25T20:11:28;100898.84;;;26.32;54.91
15308;BME280;7755;52.208;6.964;2022-08-25T20:15:35;100905.13;;;26.29;54.89
15308;BME280;7755;52.208;6.964;2022-08-25T20:19:37;100905.78;;;26.26;54.47
15308;BME280;7755;52.208;6.964;2022-08-25T20:23:40;100906.00;;;26.21;54.63
15308;BME280;7755;52.208;6.964;2022-08-25T20:27:59;100901.31;;;26.12;54.47
15308;BME280;7755;52.208;6.964;2022-08-25T20:32:05;100899.63;;;25.99;55.44
15308;BME280;7755;52.208;6.964;2022-08-25T20:36:07;100901.50;;;25.86;56.40
15308;BME280;7755;52.208;6.964;2022-08-25T20:40:11;100911.75;;;25.74;57.24
15308;BME280;7755;52.208;6.964;2022-08-25T20:44:14;100905.59;;;25.59;57.96
15308;BME280;7755;52.208;6.964;2022-08-25T20:48:21;100902.59;;;25.44;58.97
15308;BME280;7755;52.208;6.964;2022-08-25T20:52:24;100912.47;;;25.32;59.29
15308;BME280;7755;52.208;6.964;2022-08-25T20:56:26;100905.66;;;25.21;60.38
15308;BME280;7755;52.208;6.964;2022-08-25T21:00:29;100906.81;;;25.12;60.64
15308;BME280;7755;52.208;6.964;2022-08-25T21:04:35;100910.44;;;25.03;61.02
15308;BME280;7755;52.208;6.964;2022-08-25T21:08:37;100901.31;;;24.94;61.97
15308;BME280;7755;52.208;6.964;2022-08-25T21:12:41;100900.50;;;24.85;62.54
15308;BME280;7755;52.208;6.964;2022-08-25T21:16:44;100901.84;;;24.79;63.17
15308;BME280;7755;52.208;6.964;2022-08-25T21:20:47;100903.66;;;24.75;63.41
15308;BME280;7755;52.208;6.964;2022-08-25T21:24:49;100912.84;;;24.67;64.36
15308;BME280;7755;52.208;6.964;2022-08-25T21:28:52;100907.31;;;24.49;65.46
15308;BME280;7755;52.208;6.964;2022-08-25T21:32:54;100901.44;;;24.34;65.80
15308;BME280;7755;52.208;6.964;2022-08-25T21:36:57;100909.25;;;24.23;66.57
15308;BME280;7755;52.208;6.964;2022-08-25T21:41:06;100921.69;;;24.17;67.29
15308;BME280;7755;52.208;6.964;2022-08-25T21:45:10;100909.28;;;24.14;67.90
15308;BME280;7755;52.208;6.964;2022-08-25T21:49:12;100912.38;;;24.13;67.54